createdAt,value
2019-04-22T00:01:31.213Z,25.71
2019-04-22T00:04:03.863Z,25.70
2019-04-22T00:09:48.558Z,25.60
2019-04-22T00:12:25.264Z,25.60
2019-04-22T00:14:42.519Z,25.60
2019-04-22T00:17:26.218Z,25.68
2019-04-22T00:19:52.381Z,25.59
2019-04-22T00:22:22.111Z,25.63
2019-04-22T00:24:47.841Z,25.63
2019-04-22T00:30:07.893Z,25.63
2019-04-22T00:32:36.993Z,25.62
2019-04-22T00:37:59.763Z,25.52
2019-04-22T00:42:58.355Z,25.55
2019-04-22T00:48:23.967Z,25.50
2019-04-22T00:50:58.325Z,25.54
2019-04-22T00:53:26.620Z,25.51
2019-04-22T00:56:07.876Z,25.50
2019-04-22T00:58:36.756Z,25.53
2019-04-22T01:01:12.160Z,25.50
2019-04-22T01:03:46.268Z,25.51
2019-04-22T01:06:07.072Z,25.47
2019-04-22T01:11:13.346Z,25.51
2019-04-22T01:13:38.305Z,25.52
2019-04-22T01:16:13.917Z,25.49
2019-04-22T01:18:37.663Z,25.49
2019-04-22T01:21:20.158Z,25.44
2019-04-22T01:26:27.129Z,25.48
2019-04-22T01:29:12.308Z,25.46
2019-04-22T01:31:34.318Z,25.46
2019-04-22T01:34:14.139Z,25.46
2019-04-22T01:36:51.727Z,25.44
2019-04-22T01:39:43.556Z,25.44
2019-04-22T01:42:10.419Z,25.44
2019-04-22T01:44:56.733Z,25.45
2019-04-22T01:49:59.828Z,25.39
2019-04-22T01:52:29.432Z,25.40
2019-04-22T01:55:08.183Z,25.43
2019-04-22T01:57:37.668Z,25.40
2019-04-22T01:59:59.055Z,25.38
2019-04-22T02:05:08.396Z,25.38
2019-04-22T02:10:05.674Z,25.38
2019-04-22T02:12:33.667Z,25.36
2019-04-22T02:15:23.774Z,25.37
2019-04-22T02:17:56.145Z,25.37
2019-04-22T02:20:17.953Z,25.37
2019-04-22T02:23:37.077Z,25.35
2019-04-22T02:25:41.220Z,25.31
2019-04-22T02:28:16.473Z,25.29
2019-04-22T02:31:01.853Z,25.33
2019-04-22T02:33:56.593Z,25.30
2019-04-22T02:38:19.977Z,25.30
2019-04-22T02:49:06.084Z,25.28
2019-04-22T02:56:31.841Z,25.28
2019-04-22T02:59:04.166Z,25.25
2019-04-22T03:04:06.992Z,25.25
2019-04-22T03:06:33.512Z,25.24
2019-04-22T03:08:59.358Z,25.22
2019-04-22T03:11:25.206Z,25.23
2019-04-22T03:24:20.140Z,25.14
2019-04-22T03:26:52.346Z,25.18
2019-04-22T03:29:41.457Z,25.15
2019-04-22T03:35:09.600Z,25.14
2019-04-22T03:39:38.138Z,25.13
2019-04-22T03:42:07.580Z,25.12
2019-04-22T03:44:31.286Z,25.10
2019-04-22T03:47:01.841Z,25.11
2019-04-22T03:52:11.217Z,25.10
2019-04-22T03:59:34.725Z,25.07
2019-04-22T04:01:55.714Z,25.06
2019-04-22T04:04:25.648Z,25.06
2019-04-22T04:09:23.894Z,25.06
2019-04-22T04:14:27.022Z,25.03
2019-04-22T04:16:56.384Z,25.04
2019-04-22T04:19:34.458Z,25.01
2019-04-22T04:21:54.494Z,25.01
2019-04-22T04:29:35.661Z,25.01
2019-04-22T04:31:59.012Z,25.02
2019-04-22T04:34:28.547Z,24.99
2019-04-22T04:36:54.586Z,24.99
2019-04-22T04:39:26.455Z,25.00
2019-04-22T04:41:59.594Z,25.02
2019-04-22T04:44:22.699Z,24.99
2019-04-22T04:46:59.158Z,25.04
2019-04-22T04:51:53.657Z,24.98
2019-04-22T04:59:22.834Z,24.99
2019-04-22T05:01:52.682Z,25.02
2019-04-22T05:04:29.194Z,24.99
2019-04-22T05:09:24.233Z,25.04
2019-04-22T05:16:47.669Z,25.00
2019-04-22T05:19:15.422Z,24.99
2019-04-22T05:21:40.207Z,24.99
2019-04-22T05:24:19.852Z,25.00
2019-04-22T05:26:48.772Z,25.03
2019-04-22T05:29:09.643Z,25.05
2019-04-22T05:31:49.935Z,25.05
2019-04-22T05:34:09.668Z,25.12
2019-04-22T05:36:41.361Z,25.13
2019-04-22T05:39:13.957Z,25.12
2019-04-22T05:41:46.322Z,25.11
2019-04-22T05:44:08.320Z,25.13
2019-04-22T05:46:34.637Z,25.15
2019-04-22T05:49:13.440Z,25.19
2019-04-22T05:54:09.092Z,25.24
2019-04-22T05:56:38.217Z,25.25
2019-04-22T05:59:10.387Z,25.26
2019-04-22T06:01:44.986Z,25.30
2019-04-22T06:06:35.323Z,25.34
2019-04-22T06:09:27.469Z,25.38
2019-04-22T06:11:32.896Z,25.37
2019-04-22T06:14:07.888Z,25.41
2019-04-22T06:21:49.050Z,25.47
2019-04-22T06:24:18.501Z,25.47
2019-04-22T06:26:58.930Z,25.49
2019-04-22T06:32:06.963Z,25.56
2019-04-22T06:34:11.924Z,25.54
2019-04-22T06:39:11.100Z,25.60
2019-04-22T06:41:44.221Z,25.55
2019-04-22T06:44:10.996Z,25.56
2019-04-22T06:46:39.763Z,25.51
2019-04-22T06:49:11.220Z,25.52
2019-04-22T06:51:40.190Z,25.56
2019-04-22T06:54:10.513Z,25.57
2019-04-22T06:56:35.638Z,25.57
2019-04-22T06:59:09.762Z,25.56
2019-04-22T07:01:42.429Z,25.59
2019-04-22T07:04:08.028Z,25.63
2019-04-22T07:06:44.812Z,25.62
2019-04-22T07:09:20.628Z,25.62
2019-04-22T07:11:33.351Z,25.59
2019-04-22T07:14:06.897Z,25.65
2019-04-22T07:16:39.327Z,25.65
2019-04-22T07:19:21.888Z,25.65
2019-04-22T07:21:36.821Z,25.67
2019-04-22T07:24:22.832Z,25.68
2019-04-22T07:26:33.270Z,25.71
2019-04-22T07:29:01.490Z,25.74
2019-04-22T07:31:36.864Z,25.77
2019-04-22T07:34:08.198Z,25.78
2019-04-22T07:39:05.528Z,25.83
2019-04-22T07:41:32.879Z,25.85
2019-04-22T07:44:13.577Z,25.85
2019-04-22T07:46:33.738Z,25.91
2019-04-22T07:49:04.722Z,25.90
2019-04-22T07:51:32.873Z,26.03
2019-04-22T07:54:01.718Z,26.01
2019-04-22T07:56:29.462Z,26.00
2019-04-22T07:59:03.991Z,25.98
2019-04-22T08:01:30.614Z,25.98
2019-04-22T08:04:08.632Z,26.04
2019-04-22T08:06:30.979Z,26.05
2019-04-22T08:09:08.000Z,26.04
2019-04-22T08:11:47.019Z,26.06
2019-04-22T08:13:58.990Z,26.08
2019-04-22T08:16:28.513Z,26.10
2019-04-22T08:19:06.469Z,25.91
2019-04-22T08:21:30.241Z,26.02
2019-04-22T08:24:03.069Z,26.05
2019-04-22T08:26:32.205Z,26.09
2019-04-22T08:29:05.630Z,26.06
2019-04-22T08:31:35.944Z,26.07
2019-04-22T08:34:04.554Z,26.04
2019-04-22T08:36:31.726Z,26.10
2019-04-22T08:39:04.496Z,26.10
2019-04-22T08:41:31.883Z,26.08
2019-04-22T08:46:38.614Z,26.12
2019-04-22T08:49:03.907Z,26.14
2019-04-22T08:54:13.660Z,26.17
2019-04-22T08:56:33.731Z,26.17
2019-04-22T08:59:06.951Z,26.16
2019-04-22T09:01:27.037Z,26.16
2019-04-22T09:09:00.947Z,26.16
2019-04-22T09:11:37.305Z,26.18
2019-04-22T09:14:06.534Z,26.21
2019-04-22T09:16:31.838Z,26.20
2019-04-22T09:19:02.599Z,26.26
2019-04-22T09:23:58.334Z,26.26
2019-04-22T09:26:32.247Z,26.27
2019-04-22T09:28:59.367Z,26.27
2019-04-22T09:31:24.012Z,26.25
2019-04-22T09:33:53.652Z,26.28
2019-04-22T09:36:50.482Z,26.29
2019-04-22T09:39:19.305Z,26.34
2019-04-22T09:41:48.410Z,26.33
2019-04-22T09:44:16.398Z,26.33
2019-04-22T09:46:47.024Z,26.34
2019-04-22T09:49:23.156Z,26.34
2019-04-22T09:51:46.177Z,26.33
2019-04-22T09:56:45.195Z,26.37
2019-04-22T09:59:14.028Z,26.38
2019-04-22T10:01:48.997Z,26.38
2019-04-22T10:04:10.150Z,26.40
2019-04-22T10:06:54.734Z,26.38
2019-04-22T10:11:55.206Z,26.40
2019-04-22T10:14:32.017Z,26.43
2019-04-22T10:19:49.422Z,26.45
2019-04-22T10:22:19.684Z,26.48
2019-04-22T10:24:45.383Z,26.48
2019-04-22T10:27:19.062Z,26.49
2019-04-22T10:30:08.753Z,26.47
2019-04-22T10:32:33.940Z,26.46
2019-04-22T10:35:20.959Z,26.47
2019-04-22T10:37:48.149Z,26.50
2019-04-22T10:42:56.853Z,26.51
2019-04-22T10:45:26.124Z,26.50
2019-04-22T10:50:38.037Z,26.52
2019-04-22T10:53:07.760Z,26.50
2019-04-22T10:55:37.503Z,26.53
2019-04-22T10:58:06.733Z,26.54
2019-04-22T11:00:35.545Z,26.55
2019-04-22T11:03:04.210Z,26.53
2019-04-22T11:05:32.710Z,26.55
2019-04-22T11:08:04.922Z,26.58
2019-04-22T11:10:46.811Z,26.57
2019-04-22T11:13:01.014Z,26.56
2019-04-22T11:15:30.617Z,26.59
2019-04-22T11:17:59.758Z,26.62
2019-04-22T11:20:28.967Z,26.57
2019-04-22T11:22:58.527Z,26.56
2019-04-22T11:25:27.759Z,26.62
2019-04-22T11:27:55.977Z,26.64
2019-04-22T11:30:27.941Z,26.64
2019-04-22T11:32:55.955Z,26.60
2019-04-22T11:35:25.715Z,26.61
2019-04-22T11:37:54.940Z,26.63
2019-04-22T11:40:28.554Z,26.62
2019-04-22T11:42:54.416Z,26.66
2019-04-22T11:45:23.472Z,26.64
2019-04-22T11:47:53.015Z,26.62
2019-04-22T11:50:21.826Z,26.62
2019-04-22T11:52:50.967Z,26.62
2019-04-22T11:55:19.503Z,26.64
2019-04-22T11:57:47.848Z,26.64
2019-04-22T12:00:18.726Z,26.63
2019-04-22T12:02:47.172Z,26.63
2019-04-22T12:05:15.951Z,26.67
2019-04-22T12:07:45.212Z,26.67
2019-04-22T12:10:22.875Z,26.66
2019-04-22T12:12:46.161Z,26.69
2019-04-22T12:15:13.069Z,26.66
2019-04-22T12:17:42.573Z,26.67
2019-04-22T12:20:14.062Z,26.67
2019-04-22T12:22:41.041Z,26.68
2019-04-22T12:25:10.553Z,26.71
2019-04-22T12:27:39.044Z,26.70
2019-04-22T12:30:09.101Z,26.73
2019-04-22T12:32:37.419Z,26.66
2019-04-22T12:35:05.626Z,26.68
2019-04-22T12:37:42.943Z,26.67
2019-04-22T12:40:04.284Z,26.68
2019-04-22T12:42:33.232Z,26.70
2019-04-22T12:45:02.425Z,26.77
2019-04-22T12:47:30.803Z,26.77
2019-04-22T12:50:11.810Z,26.78
2019-04-22T12:52:36.967Z,26.79
2019-04-22T12:55:01.565Z,26.77
2019-04-22T12:57:30.307Z,26.78
2019-04-22T12:59:59.592Z,26.80
2019-04-22T13:02:29.019Z,26.81
2019-04-22T13:04:58.196Z,26.79
2019-04-22T13:07:26.322Z,26.82
2019-04-22T13:09:55.117Z,26.79
2019-04-22T13:12:24.730Z,26.81
2019-04-22T13:14:53.078Z,26.84
2019-04-22T13:17:21.203Z,26.84
2019-04-22T13:19:49.977Z,26.84
2019-04-22T13:22:19.054Z,26.87
2019-04-22T13:24:47.980Z,26.86
2019-04-22T13:27:17.218Z,26.86
2019-04-22T13:29:46.678Z,26.87
2019-04-22T13:32:16.386Z,26.87
2019-04-22T13:34:49.448Z,26.88
2019-04-22T13:37:14.798Z,26.91
2019-04-22T13:39:43.253Z,26.92
2019-04-22T13:42:15.433Z,26.94
2019-04-22T13:44:41.870Z,26.92
2019-04-22T13:47:29.817Z,26.92
2019-04-22T13:50:28.233Z,26.95
2019-04-22T13:52:48.616Z,26.92
2019-04-22T13:57:24.989Z,26.95
2019-04-22T13:59:44.696Z,26.95
2019-04-22T14:02:40.297Z,26.95
2019-04-22T14:05:10.504Z,26.94
2019-04-22T14:07:38.933Z,26.97
2019-04-22T14:10:08.542Z,26.97
2019-04-22T14:12:37.155Z,26.97
2019-04-22T14:15:06.294Z,26.96
2019-04-22T14:17:34.878Z,26.95
2019-04-22T14:20:04.682Z,26.95
2019-04-22T14:22:32.964Z,27.00
2019-04-22T14:25:01.109Z,26.97
2019-04-22T14:27:42.147Z,26.96
2019-04-22T14:29:59.954Z,26.98
2019-04-22T14:32:31.547Z,26.96
2019-04-22T14:34:57.901Z,26.95
2019-04-22T14:37:26.075Z,26.96
2019-04-22T14:39:55.713Z,26.93
2019-04-22T14:42:44.010Z,26.92
2019-04-22T14:45:21.972Z,26.93
2019-04-22T14:47:49.307Z,26.94
2019-04-22T14:50:17.622Z,26.92
2019-04-22T14:52:47.471Z,26.93
2019-04-22T14:55:03.871Z,26.93
2019-04-22T14:57:23.638Z,26.95
2019-04-22T14:59:53.703Z,26.95
2019-04-22T15:02:21.941Z,26.93
2019-04-22T15:04:50.154Z,26.96
2019-04-22T15:07:19.179Z,26.96
2019-04-22T15:09:48.089Z,26.96
2019-04-22T15:12:25.673Z,26.97
2019-04-22T15:14:46.076Z,26.98
2019-04-22T15:17:52.402Z,26.95
2019-04-22T15:20:39.558Z,26.96
2019-04-22T15:23:08.596Z,27.00
2019-04-22T15:25:36.885Z,26.96
2019-04-22T15:28:05.772Z,26.95
2019-04-22T15:30:35.222Z,26.98
2019-04-22T15:33:03.479Z,27.03
2019-04-22T15:35:31.600Z,27.03
2019-04-22T15:38:01.389Z,27.06
2019-04-22T15:40:31.005Z,27.04
2019-04-22T15:42:59.285Z,27.08
2019-04-22T15:45:28.633Z,27.10
2019-04-22T15:47:57.937Z,27.10
2019-04-22T15:50:26.749Z,27.13
2019-04-22T15:52:58.611Z,27.29
2019-04-22T15:55:26.799Z,27.30
2019-04-22T15:57:57.466Z,27.52
2019-04-22T16:00:38.268Z,27.75
2019-04-22T16:02:55.549Z,28.01
2019-04-22T16:05:24.561Z,28.75
2019-04-22T16:07:53.065Z,29.47
2019-04-22T16:10:22.024Z,30.28
2019-04-22T16:12:57.500Z,30.72
2019-04-22T16:15:20.480Z,31.16
2019-04-22T16:17:48.971Z,31.37
2019-04-22T16:20:17.427Z,31.45
2019-04-22T16:23:03.551Z,31.22
2019-04-22T16:26:07.331Z,30.56
2019-04-22T16:28:37.419Z,29.60
2019-04-22T16:31:06.987Z,28.03
2019-04-22T16:33:38.375Z,27.62
2019-04-22T16:36:06.882Z,27.53
2019-04-22T16:38:37.936Z,27.46
2019-04-22T16:41:06.625Z,27.38
2019-04-22T16:43:36.258Z,27.40
2019-04-22T16:46:05.623Z,27.34
2019-04-22T16:48:33.940Z,27.40
2019-04-22T16:51:02.387Z,27.39
2019-04-22T16:53:31.477Z,27.32
2019-04-22T16:55:59.697Z,27.35
2019-04-22T16:58:28.602Z,27.30
2019-04-22T17:00:58.800Z,27.30
2019-04-22T17:03:46.817Z,27.26
2019-04-22T17:06:35.207Z,27.20
2019-04-22T17:11:43.603Z,27.13
2019-04-22T17:14:13.398Z,27.11
2019-04-22T17:16:42.098Z,27.11
2019-04-22T17:19:12.868Z,27.07
2019-04-22T17:21:41.520Z,27.04
2019-04-22T17:24:09.851Z,27.01
2019-04-22T17:26:39.433Z,27.05
2019-04-22T17:29:26.533Z,27.00
2019-04-22T17:32:02.485Z,27.00
2019-04-22T17:34:25.467Z,27.01
2019-04-22T17:36:55.261Z,26.96
2019-04-22T17:39:35.647Z,26.96
2019-04-22T17:42:29.523Z,26.95
2019-04-22T17:45:28.497Z,26.97
2019-04-22T17:48:12.802Z,26.92
2019-04-22T17:53:40.162Z,26.91
2019-04-22T17:56:08.633Z,26.88
2019-04-22T17:58:34.698Z,26.88
2019-04-22T18:03:43.378Z,26.86
2019-04-22T18:06:13.814Z,26.85
2019-04-22T18:08:59.018Z,26.85
2019-04-22T18:11:34.075Z,26.84
2019-04-22T18:14:00.312Z,26.83
2019-04-22T18:16:26.214Z,26.81
2019-04-22T18:18:52.914Z,26.79
2019-04-22T18:21:42.325Z,26.79
2019-04-22T18:24:05.065Z,26.79
2019-04-22T18:26:40.202Z,26.78
2019-04-22T18:29:11.492Z,26.75
2019-04-22T18:31:34.295Z,26.73
2019-04-22T18:34:06.976Z,26.75
2019-04-22T18:36:40.577Z,26.74
2019-04-22T18:42:00.521Z,26.69
2019-04-22T18:44:35.188Z,26.68
2019-04-22T18:46:58.170Z,26.68
2019-04-22T18:49:30.688Z,26.66
2019-04-22T18:52:19.859Z,26.66
2019-04-22T18:55:08.582Z,26.66
2019-04-22T18:57:47.990Z,26.64
2019-04-22T19:03:07.446Z,26.63
2019-04-22T19:05:46.799Z,26.63
2019-04-22T19:08:23.260Z,26.62
2019-04-22T19:16:11.187Z,26.62
2019-04-22T19:18:29.785Z,26.03
2019-04-22T19:20:59.146Z,26.60
2019-04-22T19:23:40.829Z,26.62
2019-04-22T19:26:15.576Z,26.60
2019-04-22T19:28:57.230Z,26.58
2019-04-22T19:31:17.278Z,26.59
2019-04-22T19:33:39.891Z,26.59
2019-04-22T19:36:14.563Z,26.57
2019-04-22T19:38:28.547Z,26.61
2019-04-22T19:43:38.941Z,26.54
2019-04-22T19:46:08.964Z,26.54
2019-04-22T19:48:45.507Z,26.55
2019-04-22T19:51:18.726Z,26.54
2019-04-22T19:53:40.714Z,26.51
2019-04-22T19:56:10.071Z,26.55
2019-04-22T19:58:37.288Z,26.55
2019-04-22T20:01:23.648Z,26.53
2019-04-22T20:04:12.237Z,26.52
2019-04-22T20:06:33.581Z,26.56
2019-04-22T20:09:09.171Z,26.52
2019-04-22T20:11:37.072Z,26.60
2019-04-22T20:14:07.749Z,26.54
2019-04-22T20:16:34.233Z,26.51
2019-04-22T20:19:04.386Z,26.51
2019-04-22T20:21:38.906Z,26.51
2019-04-22T20:23:55.083Z,26.50
2019-04-22T20:26:33.596Z,26.51
2019-04-22T20:29:04.821Z,26.50
2019-04-22T20:31:31.854Z,26.51
2019-04-22T20:34:08.536Z,26.53
2019-04-22T20:36:52.378Z,26.56
2019-04-22T20:38:59.286Z,26.53
2019-04-22T20:41:24.921Z,26.48
2019-04-22T20:44:04.980Z,26.43
2019-04-22T20:46:29.575Z,26.46
2019-04-22T20:49:01.767Z,26.48
2019-04-22T20:51:43.554Z,26.44
2019-04-22T20:54:02.092Z,26.41
2019-04-22T20:56:30.071Z,26.38
2019-04-22T20:59:03.238Z,26.40
2019-04-22T21:01:34.390Z,26.36
2019-04-22T21:03:47.911Z,26.34
2019-04-22T21:06:32.286Z,26.34
2019-04-22T21:09:01.129Z,26.33
2019-04-22T21:11:29.970Z,26.31
2019-04-22T21:14:01.754Z,26.35
2019-04-22T21:16:34.746Z,26.31
2019-04-22T21:18:57.828Z,26.32
2019-04-22T21:21:31.721Z,26.29
2019-04-22T21:23:53.957Z,26.32
2019-04-22T21:26:29.492Z,26.31
2019-04-22T21:29:01.132Z,26.32
2019-04-22T21:31:33.963Z,26.31
2019-04-22T21:33:59.734Z,26.27
2019-04-22T21:39:00.849Z,26.26
2019-04-22T21:41:28.156Z,26.30
2019-04-22T21:43:58.270Z,26.29
2019-04-22T21:46:28.793Z,26.27
2019-04-22T21:48:59.797Z,26.25
2019-04-22T21:51:33.100Z,26.27
2019-04-22T21:54:08.507Z,26.26
2019-04-22T21:59:05.553Z,26.24
2019-04-22T22:01:50.040Z,26.22
2019-04-22T22:04:12.810Z,26.21
2019-04-22T22:06:34.761Z,26.21
2019-04-22T22:09:17.629Z,26.21
2019-04-22T22:11:40.059Z,26.23
2019-04-22T22:14:07.685Z,26.19
2019-04-22T22:16:34.919Z,26.21
2019-04-22T22:19:10.960Z,26.23
2019-04-22T22:21:48.440Z,26.18
2019-04-22T22:24:18.002Z,26.17
2019-04-22T22:26:39.925Z,26.17
2019-04-22T22:29:24.599Z,26.17
2019-04-22T22:31:47.153Z,26.16
2019-04-22T22:34:13.665Z,26.14
2019-04-22T22:36:33.246Z,26.12
2019-04-22T22:39:04.614Z,26.15
2019-04-22T22:41:18.356Z,26.13
2019-04-22T22:43:50.539Z,26.14
2019-04-22T22:46:28.966Z,26.10
2019-04-22T22:49:17.485Z,26.12
2019-04-22T22:51:49.960Z,26.12
2019-04-22T22:54:14.683Z,26.11
2019-04-22T22:56:44.451Z,26.10
2019-04-22T22:59:02.826Z,26.11
2019-04-22T23:01:39.505Z,26.11
2019-04-22T23:04:15.061Z,26.10
2019-04-22T23:06:39.251Z,26.11
2019-04-22T23:09:09.824Z,26.11
2019-04-22T23:11:52.577Z,26.04
2019-04-22T23:14:07.569Z,26.05
2019-04-22T23:16:27.357Z,26.04
2019-04-22T23:19:04.419Z,26.05
2019-04-22T23:21:38.830Z,26.06
2019-04-22T23:24:21.442Z,26.02
2019-04-22T23:26:53.974Z,26.03
2019-04-22T23:29:39.248Z,26.01
2019-04-22T23:32:17.695Z,26.03
2019-04-22T23:34:50.049Z,26.03
2019-04-22T23:37:21.682Z,26.00
2019-04-22T23:40:06.965Z,25.99
2019-04-22T23:42:27.287Z,25.97
2019-04-22T23:45:07.263Z,25.98
2019-04-22T23:47:35.659Z,25.96
2019-04-22T23:50:14.751Z,25.97
2019-04-22T23:52:54.408Z,26.00
2019-04-22T23:55:29.458Z,25.97
2019-04-22T23:57:58.510Z,25.96
